Chadron, Nebraska
Current Conditions -  °F | °C
As of 5:53 AM on Saturday 20 Dec 2014 (Local Time) from KCDR Reporting Station
Clear Clear  
Wind Chill:   Ceiling: Unl
Heat Index: 18°   Visibility: 10mi
Dew Point: 13°   Wind: 10mph
Humidity: 81%   Direction: 240°WSW
Pressure: 29.94"   Gusts: NA
Location:  42.83°N, 103°W
Report Text: KCDR 201253Z AUTO 24009KT 10SM CLR M08/M11 A2994 RMK AO2 SLP190 T10781106
Loading
Personal Weather Stations






























Interactive Weather Map New forecast layout! Learn more

10-Day Weather Forecast

Advertisements
Track Severe Weather on mobile